Time;durP1;ratioP1;P1;durP2;ratioP2;P2;SDS_P1;SDS_P2;PMS_P1;PMS_P2;Temp;Humidity;BMP_temperature;BMP_pressure;BME280_temperature;BME280_humidity;BME280_pressure;Samples;Min_cycle;Max_cycle;Signal;HPM_P1;HPM_P2
2022/09/24 00:00:43;;;;;;;2.10;1.52;;;;;;;;;;6183061;23;20005;-77
2022/09/24 00:03:09;;;;;;;4.03;1.60;;;;;;;;;;6182831;23;20004;-78
2022/09/24 00:05:39;;;;;;;3.42;1.08;;;15.10;99.90;;;;;;6182834;23;20001;-79
2022/09/24 00:08:08;;;;;;;2.13;1.63;;;15.10;99.90;;;;;;6182805;23;20013;-78
2022/09/24 00:10:41;;;;;;;1.27;1.17;;;14.90;99.90;;;;;;6182886;23;20001;-78
2022/09/24 00:13:10;;;;;;;1.17;1.08;;;15.00;99.90;;;;;;6183120;23;20001;-78
2022/09/24 00:15:37;;;;;;;1.55;1.38;;;15.10;99.90;;;;;;6182169;23;20400;-78
2022/09/24 00:18:04;;;;;;;1.73;1.10;;;14.90;99.90;;;;;;6182727;23;20008;-79
2022/09/24 00:20:31;;;;;;;2.05;1.48;;;14.90;99.90;;;;;;6181015;23;20259;-77
2022/09/24 00:22:58;;;;;;;2.25;1.40;;;14.90;99.90;;;;;;6182695;23;20012;-78
2022/09/24 00:28:08;;;;;;;3.17;1.17;;;15.10;99.90;;;;;;6182780;23;20011;-78
2022/09/24 00:30:34;;;;;;;2.33;1.70;;;;;;;;;;6182618;23;20001;-78
2022/09/24 00:33:00;;;;;;;1.55;1.42;;;;;;;;;;6182530;23;20072;-78
2022/09/24 00:35:25;;;;;;;2.38;1.70;;;;;;;;;;6180601;23;20479;-77
2022/09/24 00:37:51;;;;;;;2.55;1.38;;;;;;;;;;6182950;23;20001;-78
2022/09/24 00:40:18;;;;;;;1.55;1.00;;;;;;;;;;6182259;23;20055;-78
2022/09/24 00:42:44;;;;;;;1.67;1.15;;;;;;;;;;6182921;23;20059;-78
2022/09/24 00:45:10;;;;;;;4.88;1.73;;;;;;;;;;6181840;23;20013;-78
2022/09/24 00:47:40;;;;;;;2.63;1.35;;;14.80;99.90;;;;;;6182668;23;20391;-78
2022/09/24 00:50:18;;;;;;;2.05;1.38;;;15.00;99.90;;;;;;6182322;23;20013;-78
2022/09/24 00:53:09;;;;;;;4.53;1.52;;;15.30;99.90;;;;;;6180952;23;20005;-78
2022/09/24 00:55:37;;;;;;;2.65;1.73;;;15.10;99.90;;;;;;6169689;23;20348;-78
2022/09/24 00:58:06;;;;;;;4.70;1.67;;;15.00;99.90;;;;;;6182182;23;20100;-78
2022/09/24 01:00:32;;;;;;;1.35;1.20;;;15.00;99.90;;;;;;6182228;23;20004;-78
2022/09/24 01:03:06;;;;;;;1.30;1.10;;;14.90;99.90;;;;;;6182130;23;20063;-78
2022/09/24 01:05:31;;;;;;;4.03;1.27;;;14.70;99.90;;;;;;6182476;23;20009;-78
2022/09/24 01:07:57;;;;;;;0.85;0.85;;;14.80;99.90;;;;;;6182120;23;20005;-78
2022/09/24 01:10:48;;;;;;;1.55;1.35;;;14.90;99.90;;;;;;6181500;23;20016;-78
2022/09/24 01:13:39;;;;;;;3.70;1.02;;;15.40;99.90;;;;;;6182464;23;20354;-78
2022/09/24 01:16:12;;;;;;;3.03;1.02;;;14.50;99.90;;;;;;6181885;23;20078;-77
2022/09/24 01:18:48;;;;;;;3.63;1.35;;;14.50;99.90;;;;;;6182524;23;20066;-78
2022/09/24 01:21:45;;;;;;;1.35;1.10;;;15.30;99.90;;;;;;6182108;23;20456;-77
2022/09/24 01:24:11;;;;;;;3.53;0.98;;;;;;;;;;6181966;23;20032;-77
2022/09/24 01:26:48;;;;;;;1.05;0.90;;;14.90;99.90;;;;;;6182035;23;20440;-78
2022/09/24 01:29:45;;;;;;;3.72;1.58;;;14.90;99.90;;;;;;6182196;23;20024;-77
2022/09/24 01:32:36;;;;;;;4.00;1.30;;;15.10;99.90;;;;;;6182200;23;20009;-78
2022/09/24 01:35:12;;;;;;;3.20;1.45;;;15.00;99.90;;;;;;6182047;23;20021;-77
2022/09/24 01:37:40;;;;;;;1.85;1.20;;;15.00;99.90;;;;;;6181984;23;20001;-77
2022/09/24 01:40:08;;;;;;;1.95;1.58;;;15.00;99.90;;;;;;6182260;23;20463;-77
2022/09/24 01:42:36;;;;;;;3.80;2.05;;;14.80;99.90;;;;;;6181774;23;20463;-79
2022/09/24 01:45:03;;;;;;;3.10;2.00;;;15.00;99.90;;;;;;6181112;23;20012;-78
2022/09/24 01:47:32;;;;;;;5.97;1.65;;;15.10;99.90;;;;;;6182228;23;20067;-77
2022/09/24 01:49:59;;;;;;;3.28;1.55;;;;;;;;;;6180342;23;20001;-78
2022/09/24 01:52:30;;;;;;;3.67;1.42;;;15.00;99.90;;;;;;6181646;23;20080;-78
2022/09/24 01:54:58;;;;;;;2.40;1.42;;;14.80;99.90;;;;;;6181499;23;20017;-78
2022/09/24 01:57:26;;;;;;;;;;;15.30;99.90;;;;;;6182436;23;20052;-77
2022/09/24 01:59:54;;;;;;;1.15;0.93;;;;;;;;;;6181760;23;19900;-78
2022/09/24 02:02:31;;;;;;;1.42;1.08;;;14.80;99.90;;;;;;6181901;23;20333;-78
2022/09/24 02:05:10;;;;;;;1.00;1.00;;;15.20;99.90;;;;;;6181897;23;20081;-78
2022/09/24 02:07:50;;;;;;;1.80;1.20;;;15.10;99.90;;;;;;6181496;23;20456;-78
2022/09/24 02:10:19;;;;;;;2.10;1.25;;;15.20;99.90;;;;;;6181681;23;20463;-78
2022/09/24 02:12:51;;;;;;;4.45;1.45;;;15.20;99.90;;;;;;6181777;23;20029;-77
2022/09/24 02:15:31;;;;;;;2.33;1.23;;;15.50;99.90;;;;;;6180859;23;20017;-78
2022/09/24 02:18:01;;;;;;;1.27;1.00;;;15.20;99.90;;;;;;6181970;23;20009;-78
2022/09/24 02:20:29;;;;;;;1.42;1.10;;;15.30;99.90;;;;;;6181729;23;20012;-78
2022/09/24 02:22:56;;;;;;;1.20;1.00;;;15.10;99.90;;;;;;6179837;23;20012;-77
2022/09/24 02:25:30;;;;;;;5.47;1.27;;;15.00;99.90;;;;;;6181443;23;20091;-78
2022/09/24 02:27:56;;;;;;;1.50;0.90;;;;;;;;;;6181936;23;20726;-78
2022/09/24 02:30:22;;;;;;;1.77;1.10;;;14.90;99.90;;;;;;6181577;23;20009;-77
2022/09/24 02:32:49;;;;;;;2.10;1.83;;;15.20;99.90;;;;;;6181848;23;20006;-77
2022/09/24 02:35:15;;;;;;;2.00;1.38;;;16.70;99.90;;;;;;6181067;23;20017;-78
2022/09/24 02:37:43;;;;;;;2.17;1.10;;;15.10;99.90;;;;;;6181269;23;20054;-77
2022/09/24 02:40:11;;;;;;;2.05;1.45;;;14.60;99.90;;;;;;6181674;23;20087;-78
2022/09/24 02:42:39;;;;;;;2.50;1.60;;;15.20;99.90;;;;;;6180126;23;20005;-77
2022/09/24 02:45:05;;;;;;;2.15;1.67;;;15.00;99.90;;;;;;6181119;23;20009;-77
2022/09/24 02:47:32;;;;;;;1.92;1.80;;;;;;;;;;6181819;23;20005;-77
2022/09/24 02:49:58;;;;;;;2.83;1.38;;;;;;;;;;6181725;23;20067;-77
2022/09/24 02:52:23;;;;;;;1.30;1.20;;;15.30;99.90;;;;;;6182040;23;20006;-77
2022/09/24 02:54:49;;;;;;;3.85;2.05;;;;;;;;;;6181426;23;20092;-78
2022/09/24 02:57:17;;;;;;;0.82;0.77;;;15.20;99.90;;;;;;6182693;23;20402;-78
2022/09/24 02:59:43;;;;;;;;;;;15.10;99.90;;;;;;6183951;23;20104;-78
2022/09/24 03:02:08;;;;;;;2.15;1.20;;;;;;;;;;6183583;23;19971;-78
2022/09/24 03:04:34;;;;;;;2.67;1.92;;;;;;;;;;6183158;23;20001;-78
2022/09/24 03:07:01;;;;;;;1.98;1.50;;;;;;;;;;6181799;23;20060;-78
2022/09/24 03:09:27;;;;;;;3.13;1.58;;;;;;;;;;6183226;23;20398;-77
2022/09/24 03:11:56;;;;;;;1.50;1.33;;;;;;;;;;6183279;23;20459;-77
2022/09/24 03:14:21;;;;;;;3.38;1.77;;;14.50;99.90;;;;;;6182620;23;20024;-77
2022/09/24 03:16:47;;;;;;;2.20;1.45;;;14.90;99.90;;;;;;6183376;23;20072;-77
2022/09/24 03:19:13;;;;;;;2.80;1.42;;;;;;;;;;6183476;23;20001;-78
2022/09/24 03:21:39;;;;;;;2.83;1.58;;;;;;;;;;6183339;23;20380;-77
2022/09/24 03:24:05;;;;;;;5.35;1.45;;;;;;;;;;6183034;23;20005;-78
2022/09/24 03:26:31;;;;;;;1.90;1.35;;;;;;;;;;6181648;23;20021;-77
2022/09/24 03:28:57;;;;;;;1.40;1.30;;;;;;;;;;6182922;23;20005;-78
2022/09/24 03:31:23;;;;;;;1.30;1.20;;;;;;;;;;6183086;23;20016;-77
2022/09/24 03:33:49;;;;;;;1.63;1.38;;;15.90;99.90;;;;;;6182748;23;20001;-78
2022/09/24 03:36:15;;;;;;;8.32;1.67;;;;;;;;;;6183393;23;20013;-78
2022/09/24 03:38:42;;;;;;;5.13;1.88;;;14.70;99.90;;;;;;6182826;23;20004;-78
2022/09/24 03:41:08;;;;;;;1.95;1.40;;;14.70;99.90;;;;;;6183097;23;20463;-77
2022/09/24 03:43:35;;;;;;;2.17;1.60;;;;;;;;;;6182993;23;20419;-78
2022/09/24 03:46:02;;;;;;;1.65;1.25;;;14.40;99.90;;;;;;6182823;23;20028;-77
2022/09/24 03:48:29;;;;;;;6.55;1.42;;;14.90;99.90;;;;;;6182813;23;20105;-77
2022/09/24 03:50:55;;;;;;;2.07;1.37;;;;;;;;;;6183311;23;20035;-78
2022/09/24 03:53:21;;;;;;;1.58;1.27;;;15.00;99.90;;;;;;6182767;23;20228;-77
2022/09/24 03:55:52;;;;;;;1.17;1.00;;;14.70;99.90;;;;;;6182694;23;20013;-77
2022/09/24 03:58:18;;;;;;;2.50;1.48;;;;;;;;;;6182642;23;20113;-77
2022/09/24 04:00:44;;;;;;;2.03;1.30;;;;;;;;;;6183278;23;20425;-77
2022/09/24 04:03:10;;;;;;;2.58;1.25;;;;;;;;;;6182969;23;20040;-77
2022/09/24 04:05:36;;;;;;;1.77;1.60;;;;;;;;;;6183055;23;20344;-78
2022/09/24 04:08:03;;;;;;;1.63;1.17;;;14.40;99.90;;;;;;6183006;23;20005;-78
2022/09/24 04:10:30;;;;;;;2.08;1.30;;;;;;;;;;6182996;23;20029;-77
2022/09/24 04:12:56;;;;;;;2.10;1.38;;;14.40;99.90;;;;;;6182871;23;20005;-76
2022/09/24 04:15:22;;;;;;;5.53;1.10;;;14.20;99.90;;;;;;6182278;23;20400;-77
2022/09/24 04:17:50;;;;;;;1.42;0.90;;;13.80;99.90;;;;;;6182820;23;20008;-77
2022/09/24 04:20:20;;;;;;;2.53;1.63;;;13.80;99.90;;;;;;6182362;23;20005;-77
2022/09/24 04:22:45;;;;;;;2.15;1.20;;;13.60;99.90;;;;;;6182850;23;20001;-77
2022/09/24 04:25:11;;;;;;;1.55;1.40;;;;;;;;;;6182556;23;20009;-77
2022/09/24 04:27:38;;;;;;;1.75;1.20;;;14.20;99.90;;;;;;6182893;23;20068;-77
2022/09/24 04:30:04;;;;;;;1.13;1.02;;;;;;;;;;6182129;23;20084;-77
2022/09/24 04:32:30;;;;;;;1.13;1.02;;;;;;;;;;6182720;23;20005;-77
2022/09/24 04:34:56;;;;;;;1.67;0.80;;;;;;;;;;6182693;23;20025;-77
2022/09/24 04:37:22;;;;;;;3.25;0.80;;;;;;;;;;6182494;23;20005;-77
2022/09/24 04:39:48;;;;;;;1.48;0.98;;;;;;;;;;6182353;23;20037;-77
2022/09/24 04:42:17;;;;;;;1.05;0.80;;;14.00;99.90;;;;;;6182718;23;20007;-78
2022/09/24 04:44:47;;;;;;;0.73;0.73;;;;;;;;;;6182210;23;20016;-77
2022/09/24 04:47:16;;;;;;;3.08;0.90;;;14.00;99.90;;;;;;6182309;23;20068;-78
2022/09/24 04:49:44;;;;;;;0.65;0.65;;;14.00;99.90;;;;;;6182697;23;20015;-77
2022/09/24 04:52:13;;;;;;;3.45;1.20;;;;;;;;;;6182592;23;20027;-76
2022/09/24 04:54:39;;;;;;;0.60;0.60;;;;;;;;;;6180432;23;20009;-77
2022/09/24 04:57:05;;;;;;;0.70;0.70;;;;;;;;;;6181401;23;20151;-76
2022/09/24 04:59:31;;;;;;;4.68;0.65;;;14.20;99.90;;;;;;6181993;23;20002;-77
2022/09/24 05:01:58;;;;;;;2.13;1.00;;;;;;;;;;6181706;23;20029;-77
2022/09/24 05:04:23;;;;;;;0.80;0.70;;;14.10;99.90;;;;;;6181901;23;20134;-77
2022/09/24 05:06:49;;;;;;;0.88;0.73;;;;;;;;;;6182256;23;20577;-77
2022/09/24 05:09:15;;;;;;;0.90;0.80;;;;;;;;;;6182115;23;20020;-77
2022/09/24 05:11:41;;;;;;;1.60;1.05;;;;;;;;;;6182144;23;20012;-77
2022/09/24 05:14:07;;;;;;;1.35;0.90;;;13.80;99.90;;;;;;6181501;23;20337;-77
2022/09/24 05:16:33;;;;;;;1.02;0.93;;;;;;;;;;6182261;23;20012;-77
2022/09/24 05:19:00;;;;;;;2.97;1.33;;;;;;;;;;6181838;23;20005;-78
2022/09/24 05:21:26;;;;;;;1.55;0.93;;;13.30;99.90;;;;;;6182273;23;20009;-77
2022/09/24 05:23:51;;;;;;;1.73;1.23;;;13.60;99.90;;;;;;6181869;23;20642;-77
2022/09/24 05:29:01;;;;;;;6.00;1.33;;;13.80;99.90;;;;;;6181798;23;20012;-77
2022/09/24 05:31:27;;;;;;;1.23;0.90;;;13.00;99.90;;;;;;6181673;23;20005;-77
2022/09/24 05:33:53;;;;;;;1.40;0.90;;;;;;;;;;6181872;23;20029;-77
2022/09/24 05:36:19;;;;;;;2.05;1.15;;;;;;;;;;6181895;23;20005;-77
2022/09/24 05:38:45;;;;;;;1.65;1.17;;;;;;;;;;6181445;23;20350;-77
2022/09/24 05:41:11;;;;;;;1.45;0.98;;;;;;;;;;6181726;23;20021;-77
2022/09/24 05:43:37;;;;;;;3.03;1.45;;;;;;;;;;6181591;23;20012;-77
2022/09/24 05:46:03;;;;;;;1.67;1.45;;;;;;;;;;6181499;23;20353;-77
2022/09/24 05:48:28;;;;;;;1.92;1.35;;;13.00;99.90;;;;;;6181305;23;20005;-77
2022/09/24 05:50:55;;;;;;;1.65;1.30;;;;;;;;;;6180708;23;20019;-77
2022/09/24 05:53:24;;;;;;;1.65;0.98;;;;;;;;;;6181808;23;20028;-77
2022/09/24 05:55:50;;;;;;;5.03;1.70;;;;;;;;;;6181668;23;20024;-77
2022/09/24 05:58:17;;;;;;;2.50;1.48;;;;;;;;;;6181561;23;20017;-77
2022/09/24 06:00:44;;;;;;;2.15;1.60;;;;;;;;;;6182001;23;20009;-77
2022/09/24 06:03:15;;;;;;;3.83;2.35;;;13.00;99.90;;;;;;6182367;23;20312;-77
2022/09/24 06:05:48;;;;;;;3.40;1.98;;;13.00;99.90;;;;;;6181140;23;20013;-77
2022/09/24 06:08:16;;;;;;;3.28;1.65;;;13.60;99.90;;;;;;6181232;23;20009;-77
2022/09/24 06:10:44;;;;;;;2.80;1.63;;;14.00;99.90;;;;;;6181196;23;20009;-77
2022/09/24 06:13:10;;;;;;;2.20;1.90;;;;;;;;;;6177626;23;20105;-76
2022/09/24 06:15:37;;;;;;;1.73;1.50;;;14.20;99.90;;;;;;6178413;23;20001;-76
2022/09/24 06:18:04;;;;;;;5.50;2.92;;;14.10;99.90;;;;;;6178261;23;20344;-77
2022/09/24 06:20:30;;;;;;;4.25;2.65;;;;;;;;;;6181302;23;20009;-77
2022/09/24 06:22:58;;;;;;;4.65;3.70;;;17.20;99.90;;;;;;6180644;23;20032;-76
2022/09/24 06:25:25;;;;;;;3.42;2.58;;;18.50;99.50;;;;;;6180490;23;20020;-82
2022/09/24 06:27:59;;;;;;;2.83;2.20;;;20.00;99.90;;;;;;6156607;23;20005;-76
2022/09/24 06:30:34;;;;;;;6.32;3.28;;;21.70;93.10;;;;;;6183130;23;20071;-77
2022/09/24 06:33:05;;;;;;;2.90;2.08;;;23.60;90.00;;;;;;6184795;23;20009;-77
2022/09/24 06:35:36;;;;;;;2.03;1.52;;;23.10;86.70;;;;;;6185542;23;20009;-77
2022/09/24 06:38:02;;;;;;;2.40;1.50;;;24.70;83.10;;;;;;6183985;23;20463;-76
2022/09/24 06:40:28;;;;;;;1.92;1.48;;;27.70;82.60;;;;;;6184411;23;20008;-78
2022/09/24 06:42:54;;;;;;;1.92;1.70;;;30.30;72.10;;;;;;6184362;23;20004;-77
2022/09/24 06:45:20;;;;;;;4.47;1.45;;;32.20;57.10;;;;;;6184291;23;20368;-78
2022/09/24 06:47:53;;;;;;;1.33;1.20;;;33.60;51.90;;;;;;6184414;23;20012;-78
2022/09/24 06:50:18;;;;;;;1.98;1.63;;;32.60;58.60;;;;;;6184011;23;20059;-78
2022/09/24 06:52:44;;;;;;;2.03;1.40;;;;;;;;;;6184150;23;20009;-78
2022/09/24 06:55:10;;;;;;;3.77;1.67;;;30.20;64.30;;;;;;6184213;23;20005;-77
2022/09/24 06:57:35;;;;;;;4.60;1.47;;;31.40;63.40;;;;;;6183134;23;20021;-78
2022/09/24 07:00:01;;;;;;;1.80;1.57;;;;;;;;;;6183694;23;20008;-78
2022/09/24 07:02:29;;;;;;;4.73;1.30;;;36.30;53.50;;;;;;6183537;23;20445;-77
2022/09/24 07:04:54;;;;;;;4.28;1.38;;;38.20;49.90;;;;;;6185445;23;20020;-78
2022/09/24 07:07:33;;;;;;;1.80;1.20;;;40.20;47.00;;;;;;6185302;23;20503;-78
2022/09/24 07:10:04;;;;;;;2.65;1.20;;;41.80;38.30;;;;;;6185379;23;20004;-79
2022/09/24 07:12:32;;;;;;;1.40;1.05;;;43.50;42.50;;;;;;6184024;23;20001;-77
2022/09/24 07:14:59;;;;;;;1.50;0.80;;;44.90;41.00;;;;;;6182899;23;20005;-79
2022/09/24 07:17:25;;;;;;;2.42;0.82;;;46.00;39.20;;;;;;6184700;23;20005;-78
2022/09/24 07:19:51;;;;;;;;;;;45.80;34.10;;;;;;6184320;23;20012;-78
2022/09/24 07:22:16;;;;;;;1.25;0.93;;;47.10;32.50;;;;;;6184044;23;19904;-78
2022/09/24 07:24:42;;;;;;;;;;;47.90;28.80;;;;;;6183223;23;20005;-78
2022/09/24 07:27:08;;;;;;;2.33;0.90;;;48.10;34.80;;;;;;6182340;23;19934;-78
2022/09/24 07:29:34;;;;;;;0.70;0.43;;;47.00;34.80;;;;;;6182870;23;20317;-78
2022/09/24 07:32:01;;;;;;;1.00;0.90;;;48.10;30.20;;;;;;6182806;23;20009;-77
2022/09/24 07:34:26;;;;;;;1.48;1.00;;;48.70;34.30;;;;;;6182576;23;20016;-79
2022/09/24 07:36:54;;;;;;;3.50;1.08;;;47.50;35.40;;;;;;6182300;23;19997;-78
2022/09/24 07:39:20;;;;;;;0.60;0.50;;;;;;;;;;6182379;23;20334;-78
2022/09/24 07:41:46;;;;;;;1.55;0.88;;;41.80;37.70;;;;;;6182392;23;20003;-78
2022/09/24 07:44:11;;;;;;;2.13;1.10;;;41.10;38.20;;;;;;6181380;23;20495;-78
2022/09/24 07:46:37;;;;;;;;;;;41.10;32.50;;;;;;6183506;23;20005;-78
2022/09/24 07:49:02;;;;;;;3.92;0.85;;;40.90;35.00;;;;;;6182940;23;19900;-79
2022/09/24 07:51:28;;;;;;;;;;;40.90;31.90;;;;;;6183679;23;20040;-79
2022/09/24 07:53:55;;;;;;;0.70;0.50;;;37.60;33.60;;;;;;6183095;23;19900;-79
2022/09/24 07:56:22;;;;;;;0.88;0.68;;;37.10;41.00;;;;;;6182462;23;20020;-78
2022/09/24 07:58:49;;;;;;;0.98;0.50;;;36.50;41.30;;;;;;6183110;23;20448;-78
2022/09/24 08:01:16;;;;;;;1.63;0.85;;;34.20;38.50;;;;;;6182413;23;20076;-78
2022/09/24 08:03:42;;;;;;;0.77;0.45;;;33.00;45.90;;;;;;6182895;23;20002;-78
2022/09/24 08:06:08;;;;;;;;;;;32.90;38.00;;;;;;6182822;23;20009;-78
2022/09/24 08:08:34;;;;;;;1.10;0.68;;;;;;;;;;6182605;23;19922;-78
2022/09/24 08:11:04;;;;;;;2.17;0.85;;;29.30;41.70;;;;;;6182575;23;20021;-78
2022/09/24 08:13:30;;;;;;;1.13;0.85;;;;;;;;;;6182462;23;20013;-78
2022/09/24 08:16:00;;;;;;;1.55;1.13;;;29.20;51.70;;;;;;6182457;23;20084;-78
2022/09/24 08:18:27;;;;;;;1.73;1.05;;;29.50;41.90;;;;;;6181824;23;20001;-77
2022/09/24 08:20:53;;;;;;;3.30;0.90;;;29.00;48.40;;;;;;6182492;23;20005;-77
2022/09/24 08:23:22;;;;;;;2.10;1.00;;;;;;;;;;6182583;23;20028;-78
2022/09/24 08:25:48;;;;;;;1.92;1.10;;;27.90;53.70;;;;;;6182865;23;20329;-78
2022/09/24 08:28:15;;;;;;;3.60;1.20;;;27.50;54.80;;;;;;6182655;23;20080;-78
2022/09/24 08:30:42;;;;;;;1.80;1.40;;;27.60;53.90;;;;;;6182447;23;20016;-77
2022/09/24 08:33:10;;;;;;;1.70;1.20;;;28.20;44.60;;;;;;6182438;23;20337;-78
2022/09/24 08:35:38;;;;;;;3.08;1.00;;;28.20;53.50;;;;;;6182450;23;20013;-77
2022/09/24 08:38:05;;;;;;;1.67;1.10;;;;;;;;;;6182490;23;20429;-78
2022/09/24 08:40:37;;;;;;;2.03;1.35;;;31.50;45.40;;;;;;6182632;23;20344;-80
2022/09/24 08:43:35;;;;;;;1.63;1.10;;;32.60;48.00;;;;;;6182293;23;20009;-79
2022/09/24 08:48:54;;;;;;;3.17;1.20;;;34.70;38.40;;;;;;6182637;23;20132;-79
2022/09/24 08:51:21;;;;;;;1.43;0.90;;;33.60;36.90;;;;;;6182810;23;20028;-79
2022/09/24 08:53:55;;;;;;;1.67;0.95;;;33.90;40.40;;;;;;6175377;23;20233;-79
2022/09/24 08:56:31;;;;;;;4.18;1.38;;;35.30;44.50;;;;;;6180594;23;20032;-79
2022/09/24 08:59:08;;;;;;;1.42;1.05;;;36.80;41.10;;;;;;6182293;23;20005;-80
2022/09/24 09:01:43;;;;;;;2.10;1.08;;;38.50;39.30;;;;;;6180546;23;20072;-79
2022/09/24 09:04:29;;;;;;;1.20;1.10;;;42.60;36.00;;;;;;6182107;23;20003;-80
2022/09/24 09:07:24;;;;;;;2.83;0.98;;;44.50;33.50;;;;;;6181830;23;20008;-80
2022/09/24 09:09:59;;;;;;;1.40;1.25;;;46.80;31.60;;;;;;6180483;23;20008;-80
2022/09/24 09:12:40;;;;;;;1.42;0.80;;;47.00;30.90;;;;;;6182011;23;20032;-79
2022/09/24 09:15:12;;;;;;;5.28;0.90;;;46.90;31.20;;;;;;6181311;23;20025;-78
2022/09/24 09:17:49;;;;;;;2.05;0.93;;;46.60;30.60;;;;;;6180217;23;20336;-78
2022/09/24 09:20:20;;;;;;;1.58;1.27;;;48.20;30.10;;;;;;6181879;23;20027;-80
2022/09/24 09:22:49;;;;;;;1.20;1.10;;;49.50;29.60;;;;;;6182153;23;20080;-80
2022/09/24 09:25:24;;;;;;;1.83;1.10;;;49.90;29.30;;;;;;6182069;23;20087;-80
2022/09/24 09:27:57;;;;;;;1.20;1.10;;;50.10;29.10;;;;;;6182017;23;20005;-80
2022/09/24 09:30:23;;;;;;;0.90;0.90;;;;;;;;;;6181969;23;20016;-80
2022/09/24 09:33:00;;;;;;;1.58;1.48;;;50.10;29.00;;;;;;6181974;23;20001;-80
2022/09/24 09:35:48;;;;;;;2.90;1.02;;;48.70;28.90;;;;;;6182459;23;20024;-79
2022/09/24 09:38:37;;;;;;;4.78;0.88;;;48.00;26.10;;;;;;6181873;23;20001;-79
2022/09/24 09:41:14;;;;;;;1.30;1.20;;;48.00;29.50;;;;;;6181316;23;20005;-79
2022/09/24 09:43:43;;;;;;;0.95;0.70;;;48.60;25.80;;;;;;6181555;23;20005;-79
2022/09/24 09:46:23;;;;;;;0.63;0.63;;;48.30;26.20;;;;;;6181493;23;20008;-79
2022/09/24 09:48:58;;;;;;;2.63;0.75;;;48.30;25.50;;;;;;6181699;23;20012;-80
2022/09/24 09:51:25;;;;;;;1.80;1.33;;;47.90;25.30;;;;;;6181213;23;20512;-80
2022/09/24 09:53:54;;;;;;;2.40;0.98;;;47.60;26.90;;;;;;6181882;23;20024;-79
2022/09/24 09:56:43;;;;;;;1.15;1.05;;;46.80;25.70;;;;;;6180905;23;20062;-79
2022/09/24 09:59:11;;;;;;;1.00;0.90;;;46.50;28.30;;;;;;6179280;23;20013;-79
2022/09/24 10:01:42;;;;;;;1.00;0.77;;;47.20;29.40;;;;;;6180987;23;20078;-79
2022/09/24 10:04:38;;;;;;;3.85;0.75;;;47.90;25.30;;;;;;6181330;23;20028;-79
2022/09/24 10:07:11;;;;;;;1.10;0.90;;;48.50;28.90;;;;;;6180090;23;20099;-79
2022/09/24 10:09:38;;;;;;;1.10;1.00;;;47.60;26.50;;;;;;6180589;23;20009;-79
2022/09/24 10:12:15;;;;;;;2.03;0.90;;;47.30;29.40;;;;;;6181751;23;20488;-79
2022/09/24 10:14:42;;;;;;;1.02;0.90;;;47.00;27.30;;;;;;6178154;23;20071;-78
2022/09/24 10:17:17;;;;;;;2.78;0.90;;;46.90;28.80;;;;;;6180616;23;20011;-80
2022/09/24 10:19:46;;;;;;;1.85;0.90;;;47.10;28.60;;;;;;6180487;23;20001;-79
2022/09/24 10:22:21;;;;;;;1.08;0.75;;;47.20;28.80;;;;;;6180462;23;20001;-79
2022/09/24 10:24:47;;;;;;;2.30;0.98;;;;;;;;;;6180959;23;20005;-80
2022/09/24 10:27:44;;;;;;;4.63;1.20;;;47.20;28.90;;;;;;6179987;23;20348;-79
2022/09/24 10:30:34;;;;;;;1.75;1.17;;;47.20;25.30;;;;;;6177763;23;20015;-79
2022/09/24 10:33:04;;;;;;;1.23;0.68;;;47.80;27.00;;;;;;6181254;23;20017;-80
2022/09/24 10:35:32;;;;;;;1.90;0.90;;;;;;;;;;6180611;23;20495;-80
2022/09/24 10:37:59;;;;;;;1.75;0.70;;;48.40;28.50;;;;;;6181839;23;20001;-79
2022/09/24 10:40:29;;;;;;;1.42;0.52;;;48.50;24.60;;;;;;6181826;23;20056;-79
2022/09/24 10:43:00;;;;;;;2.88;0.93;;;48.70;24.40;;;;;;6180491;23;20032;-80
2022/09/24 10:45:49;;;;;;;1.13;0.82;;;49.00;24.20;;;;;;6176243;23;20080;-79
2022/09/24 10:48:38;;;;;;;2.92;0.90;;;48.90;25.00;;;;;;6172873;23;20010;-79
2022/09/24 10:51:04;;;;;;;1.63;0.88;;;;;;;;;;6181206;23;20009;-80
2022/09/24 10:53:49;;;;;;;0.85;0.50;;;48.10;24.30;;;;;;6181179;23;20019;-80
2022/09/24 10:56:35;;;;;;;2.25;0.98;;;48.40;26.00;;;;;;6179856;23;20036;-79
2022/09/24 10:59:01;;;;;;;1.70;0.85;;;;;;;;;;6180618;23;19997;-79
2022/09/24 11:01:52;;;;;;;0.80;0.55;;;44.70;25.10;;;;;;6180651;23;20005;-79
2022/09/24 11:05:00;;;;;;;1.20;0.85;;;45.20;30.50;;;;;;6180277;23;20005;-79
2022/09/24 11:07:51;;;;;;;1.48;0.73;;;45.40;28.60;;;;;;6181016;23;20001;-79
2022/09/24 11:10:44;;;;;;;1.00;0.60;;;42.80;31.30;;;;;;6181158;23;20005;-78
2022/09/24 11:13:40;;;;;;;2.40;0.60;;;38.10;27.20;;;;;;6181263;23;20608;-78
2022/09/24 11:16:09;;;;;;;4.72;0.70;;;33.80;29.80;;;;;;6180528;23;20013;-78
2022/09/24 11:18:58;;;;;;;1.23;0.75;;;31.80;37.20;;;;;;6181809;23;20441;-77
2022/09/24 11:21:44;;;;;;;1.45;0.88;;;30.40;43.30;;;;;;6182299;23;20009;-78
2022/09/24 11:24:32;;;;;;;2.28;1.10;;;31.30;32.90;;;;;;6178556;23;20009;-78
2022/09/24 11:27:26;;;;;;;1.58;0.95;;;31.40;41.40;;;;;;6178080;23;20005;-78
2022/09/24 11:30:01;;;;;;;1.95;0.90;;;30.70;33.80;;;;;;6178405;23;20005;-77
2022/09/24 11:32:55;;;;;;;1.52;0.90;;;30.50;37.90;;;;;;6177969;23;20001;-77
2022/09/24 11:35:25;;;;;;;1.23;0.75;;;30.00;37.90;;;;;;6179014;23;20337;-78
2022/09/24 11:38:32;;;;;;;2.28;1.40;;;29.00;46.00;;;;;;6182499;23;20016;-78
2022/09/24 11:41:25;;;;;;;1.80;1.00;;;28.90;47.50;;;;;;6120233;23;20013;-77
2022/09/24 11:44:00;;;;;;;1.92;1.58;;;29.20;47.70;;;;;;6119937;23;20013;-77
2022/09/24 11:46:25;;;;;;;3.13;1.67;;;;;;;;;;6119683;23;20377;-78
2022/09/24 11:49:21;;;;;;;1.55;1.13;;;29.10;47.70;;;;;;6120898;23;20006;-79
2022/09/24 11:52:12;;;;;;;1.10;0.85;;;28.90;41.10;;;;;;6120507;23;20116;-78
2022/09/24 11:54:42;;;;;;;2.53;1.25;;;29.10;40.30;;;;;;6120473;23;20393;-79
2022/09/24 11:57:18;;;;;;;1.33;0.93;;;29.70;47.30;;;;;;6120350;23;20024;-78
2022/09/24 11:59:55;;;;;;;1.33;0.70;;;29.90;36.80;;;;;;6120618;23;20006;-79
2022/09/24 12:02:59;;;;;;;1.27;1.00;;;30.30;46.60;;;;;;6119813;23;20084;-77
2022/09/24 12:05:43;;;;;;;2.00;1.30;;;30.40;36.80;;;;;;6062254;23;20007;-78
2022/09/24 12:08:17;;;;;;;1.30;0.88;;;30.40;35.40;;;;;;6062410;23;20034;-78
2022/09/24 12:10:53;;;;;;;2.78;0.75;;;29.40;46.70;;;;;;6062267;23;20343;-78
2022/09/24 12:13:27;;;;;;;5.10;1.20;;;29.10;36.70;;;;;;6062365;23;20006;-78
2022/09/24 12:15:53;;;;;;;1.70;0.85;;;;;;;;;;6077201;23;20018;-81
2022/09/24 12:18:51;;;;;;;0.90;0.70;;;28.70;37.50;;;;;;6120497;23;20006;-78
2022/09/24 12:21:22;;;;;;;1.45;1.08;;;27.90;38.70;;;;;;6120389;23;20006;-78
2022/09/24 12:23:50;;;;;;;0.98;0.88;;;26.90;39.50;;;;;;6119722;23;20381;-78
2022/09/24 12:26:18;;;;;;;1.75;1.10;;;26.60;50.20;;;;;;6119942;23;20006;-78
2022/09/24 12:34:50;;;;;;;1.55;0.63;;;25.70;41.10;;;;;;6119829;23;20037;-78
2022/09/24 12:37:20;;;;;;;1.52;1.40;;;24.90;42.00;;;;;;6120305;23;20048;-78
2022/09/24 12:40:34;;;;;;;1.27;0.80;;;24.40;43.00;;;;;;6121789;23;20089;-76
2022/09/24 12:43:05;;;;;;;2.38;1.20;;;24.30;55.00;;;;;;6119721;23;20014;-79
2022/09/24 12:45:33;;;;;;;1.10;1.00;;;24.90;42.80;;;;;;6119566;23;20006;-78
2022/09/24 12:48:00;;;;;;;1.23;0.90;;;25.30;45.00;;;;;;6120145;23;20096;-78
2022/09/24 12:50:29;;;;;;;1.35;1.20;;;25.00;42.50;;;;;;6119836;23;20026;-78
2022/09/24 12:52:55;;;;;;;1.60;1.20;;;;;;;;;;6119735;23;20158;-78
2022/09/24 12:55:33;;;;;;;2.08;1.30;;;25.00;54.40;;;;;;6118957;23;20098;-78
2022/09/24 12:58:29;;;;;;;1.50;1.40;;;24.80;43.00;;;;;;6119985;23;20025;-78
2022/09/24 13:01:23;;;;;;;1.75;1.30;;;25.00;43.00;;;;;;6119844;23;20053;-79
2022/09/24 13:04:14;;;;;;;2.25;1.10;;;25.30;55.20;;;;;;6107206;23;20009;-78
2022/09/24 13:06:41;;;;;;;1.40;1.02;;;25.00;54.80;;;;;;6120169;23;20005;-78
2022/09/24 13:09:25;;;;;;;1.15;1.05;;;24.70;55.40;;;;;;6095331;23;20006;-78
2022/09/24 13:12:20;;;;;;;2.25;1.67;;;24.20;56.60;;;;;;6120050;23;20519;-77
2022/09/24 13:15:01;;;;;;;4.22;1.48;;;24.30;46.50;;;;;;6119068;23;20398;-78
2022/09/24 13:17:34;;;;;;;1.42;1.00;;;24.10;56.10;;;;;;6119527;23;20009;-79
2022/09/24 13:20:05;;;;;;;1.95;1.52;;;24.20;44.20;;;;;;6168520;23;20027;-84
2022/09/24 13:22:35;;;;;;;1.63;1.00;;;24.60;49.10;;;;;;6182180;23;20033;-77
2022/09/24 13:25:22;;;;;;;13.73;2.40;;;24.70;55.50;;;;;;6182526;23;20012;-78
2022/09/24 13:28:02;;;;;;;1.25;1.15;;;25.00;47.30;;;;;;6182183;23;20008;-78
2022/09/24 13:30:29;;;;;;;2.92;1.20;;;;;;;;;;6181725;23;20005;-78
2022/09/24 13:33:16;;;;;;;2.47;1.70;;;26.10;48.40;;;;;;6182306;23;20072;-78
2022/09/24 13:36:05;;;;;;;1.58;1.20;;;25.80;44.90;;;;;;6182324;23;20013;-78
2022/09/24 13:38:44;;;;;;;1.70;1.58;;;25.70;56.30;;;;;;6180534;23;20009;-78
2022/09/24 13:41:22;;;;;;;2.08;1.23;;;25.60;57.20;;;;;;6181897;23;20008;-79
2022/09/24 13:43:53;;;;;;;1.50;1.17;;;25.70;45.70;;;;;;6181886;23;20062;-79
2022/09/24 13:46:19;;;;;;;1.27;1.17;;;25.60;46.00;;;;;;6181315;23;20314;-79
2022/09/24 13:48:51;;;;;;;1.23;1.13;;;25.80;46.10;;;;;;6181830;23;20009;-78
2022/09/24 13:51:20;;;;;;;1.42;0.98;;;25.70;46.10;;;;;;6182328;23;20001;-79
2022/09/24 13:54:05;;;;;;;2.00;1.40;;;25.70;46.30;;;;;;6181897;23;20067;-80